createdAt,value
2017-11-30T00:00:26.773Z,0
2017-11-30T00:01:07.289Z,0
2017-11-30T00:01:47.875Z,0
2017-11-30T00:02:28.386Z,0
2017-11-30T00:03:09.003Z,0
2017-11-30T00:03:49.483Z,0
2017-11-30T00:04:30.019Z,0
2017-11-30T00:05:10.588Z,0
2017-11-30T00:05:51.127Z,0
2017-11-30T00:06:31.687Z,0
2017-11-30T00:07:12.235Z,0
2017-11-30T00:07:52.748Z,0
2017-11-30T00:08:33.309Z,0
2017-11-30T00:09:13.861Z,0
2017-11-30T00:09:54.451Z,0
2017-11-30T00:10:34.960Z,0
2017-11-30T00:11:15.561Z,0
2017-11-30T00:11:56.034Z,0
2017-11-30T00:12:36.579Z,0
2017-11-30T00:13:17.139Z,0
2017-11-30T00:13:57.629Z,0
2017-11-30T00:14:38.147Z,0
2017-11-30T00:15:18.694Z,0
2017-11-30T00:15:59.236Z,0
2017-11-30T00:16:39.779Z,0
2017-11-30T00:17:20.346Z,0
2017-11-30T00:18:00.911Z,0
2017-11-30T00:18:41.417Z,0
2017-11-30T00:19:21.925Z,0
2017-11-30T00:20:02.546Z,0
2017-11-30T00:20:43.066Z,0
2017-11-30T00:21:23.640Z,0
2017-11-30T00:22:04.204Z,0
2017-11-30T00:22:44.746Z,0
2017-11-30T00:23:26.067Z,0
2017-11-30T00:24:07.315Z,0
2017-11-30T00:24:47.950Z,0
2017-11-30T00:25:28.521Z,0
2017-11-30T00:26:09.035Z,0
2017-11-30T00:26:49.556Z,0
2017-11-30T00:27:30.284Z,0
2017-11-30T00:28:10.853Z,0
2017-11-30T00:28:51.790Z,0
2017-11-30T00:29:32.221Z,0
2017-11-30T00:30:12.983Z,0
2017-11-30T00:30:53.602Z,0
2017-11-30T00:31:34.089Z,0
2017-11-30T00:32:14.620Z,0
2017-11-30T00:32:55.385Z,0
2017-11-30T00:33:36.241Z,0
2017-11-30T00:34:17.587Z,0
2017-11-30T00:34:58.199Z,0
2017-11-30T00:35:38.796Z,0
2017-11-30T00:36:19.299Z,0
2017-11-30T00:36:59.852Z,0
2017-11-30T00:37:40.384Z,0
2017-11-30T00:38:20.980Z,0
2017-11-30T00:39:02.943Z,0
2017-11-30T00:39:43.509Z,0
2017-11-30T00:40:23.996Z,0
2017-11-30T00:41:04.561Z,0
2017-11-30T00:41:45.115Z,0
2017-11-30T00:42:26.320Z,0
2017-11-30T00:43:07.750Z,0
2017-11-30T00:43:48.168Z,0
2017-11-30T00:44:28.685Z,0
2017-11-30T00:45:09.200Z,0
2017-11-30T00:45:49.779Z,0
2017-11-30T00:46:30.301Z,0
2017-11-30T00:47:10.894Z,0
2017-11-30T00:47:51.753Z,0
2017-11-30T00:48:32.957Z,0
2017-11-30T00:49:13.636Z,0
2017-11-30T00:49:54.194Z,0
2017-11-30T00:50:34.740Z,0
2017-11-30T00:51:15.298Z,0
2017-11-30T00:51:55.816Z,0
2017-11-30T00:52:37.202Z,0
2017-11-30T00:53:17.409Z,0
2017-11-30T00:53:58.594Z,0
2017-11-30T00:54:39.177Z,0
2017-11-30T00:55:19.687Z,0
2017-11-30T00:56:01.694Z,0
2017-11-30T00:56:42.293Z,0
2017-11-30T00:57:23.100Z,0
2017-11-30T00:58:03.938Z,0
2017-11-30T00:58:44.568Z,0
2017-11-30T00:59:25.059Z,0
2017-11-30T01:00:05.577Z,0
2017-11-30T01:00:46.140Z,0
2017-11-30T01:01:26.689Z,0
2017-11-30T01:02:07.199Z,0
2017-11-30T01:02:47.759Z,0
2017-11-30T01:03:28.302Z,0
2017-11-30T01:04:08.904Z,0
2017-11-30T01:04:49.451Z,0
2017-11-30T01:05:29.948Z,0
2017-11-30T01:06:10.546Z,0
2017-11-30T01:06:51.085Z,0
2017-11-30T01:07:31.584Z,0
2017-11-30T01:08:12.132Z,0
2017-11-30T01:08:52.660Z,0
2017-11-30T01:09:33.208Z,0
2017-11-30T01:10:13.775Z,0
2017-11-30T01:10:54.317Z,0
2017-11-30T01:11:34.796Z,0
2017-11-30T01:12:15.717Z,0
2017-11-30T01:12:56.284Z,0
2017-11-30T01:13:36.895Z,0
2017-11-30T01:14:17.489Z,0
2017-11-30T01:14:58.214Z,0
2017-11-30T01:15:38.584Z,0
2017-11-30T01:16:19.156Z,0
2017-11-30T01:17:00.087Z,0
2017-11-30T01:17:40.705Z,0
2017-11-30T01:18:21.346Z,0
2017-11-30T01:19:01.884Z,0
2017-11-30T01:19:42.446Z,0
2017-11-30T01:20:23.010Z,0
2017-11-30T01:21:03.564Z,0
2017-11-30T01:21:44.029Z,0
2017-11-30T01:22:24.589Z,0
2017-11-30T01:23:05.126Z,0
2017-11-30T01:23:45.952Z,0
2017-11-30T01:24:26.520Z,0
2017-11-30T01:25:07.086Z,0
2017-11-30T01:25:47.641Z,0
2017-11-30T01:26:28.103Z,0
2017-11-30T01:27:08.609Z,0
2017-11-30T01:27:49.340Z,0
2017-11-30T01:28:29.743Z,0
2017-11-30T01:29:10.257Z,0
2017-11-30T01:29:50.855Z,0
2017-11-30T01:30:31.415Z,0
2017-11-30T01:31:11.925Z,0
2017-11-30T01:31:52.508Z,0
2017-11-30T01:32:33.042Z,0
2017-11-30T01:33:13.494Z,0
2017-11-30T01:33:53.975Z,0
2017-11-30T01:34:34.514Z,0
2017-11-30T01:35:15.065Z,0
2017-11-30T01:35:55.600Z,0
2017-11-30T01:36:36.695Z,0
2017-11-30T01:37:16.612Z,0
2017-11-30T01:37:57.170Z,0
2017-11-30T01:38:37.970Z,0
2017-11-30T01:39:18.463Z,0
2017-11-30T01:39:59.117Z,0
2017-11-30T01:40:39.753Z,0
2017-11-30T01:41:20.207Z,0
2017-11-30T01:42:00.742Z,0
2017-11-30T01:42:41.282Z,0
2017-11-30T01:43:21.813Z,0
2017-11-30T01:44:02.393Z,0
2017-11-30T01:44:42.928Z,0
2017-11-30T01:45:23.468Z,0
2017-11-30T01:46:03.988Z,0
2017-11-30T01:46:44.496Z,0
2017-11-30T01:47:25.063Z,0
2017-11-30T01:48:05.548Z,0
2017-11-30T01:48:46.109Z,0
2017-11-30T01:49:26.639Z,0
2017-11-30T01:50:07.195Z,0
2017-11-30T01:50:47.766Z,0
2017-11-30T01:51:28.322Z,0
2017-11-30T01:52:08.917Z,0
2017-11-30T01:52:49.472Z,0
2017-11-30T01:53:30.045Z,0
2017-11-30T01:54:10.568Z,0
2017-11-30T01:54:51.115Z,0
2017-11-30T01:55:31.676Z,0
2017-11-30T01:56:12.241Z,0
2017-11-30T01:56:52.791Z,0
2017-11-30T01:57:33.459Z,0
2017-11-30T01:58:13.973Z,0
2017-11-30T01:58:54.499Z,0
2017-11-30T01:59:35.022Z,0
2017-11-30T02:00:15.541Z,0
2017-11-30T02:00:56.126Z,0
2017-11-30T02:01:36.644Z,0
2017-11-30T02:02:17.164Z,0
2017-11-30T02:02:57.727Z,0
2017-11-30T02:03:38.277Z,0
2017-11-30T02:04:18.965Z,0
2017-11-30T02:04:59.490Z,0
2017-11-30T02:05:40.065Z,0
2017-11-30T02:06:20.602Z,0
2017-11-30T02:07:01.120Z,0
2017-11-30T02:07:41.641Z,0
2017-11-30T02:08:22.587Z,0
2017-11-30T02:09:03.406Z,0
2017-11-30T02:09:44.035Z,0
2017-11-30T02:10:24.555Z,0
2017-11-30T02:11:05.035Z,0
2017-11-30T02:11:45.631Z,0
2017-11-30T02:12:26.175Z,0
2017-11-30T02:13:06.709Z,0
2017-11-30T02:13:47.275Z,0
2017-11-30T02:14:27.777Z,0
2017-11-30T02:15:08.325Z,0
2017-11-30T02:15:48.860Z,0
2017-11-30T02:16:29.536Z,0
2017-11-30T02:17:10.048Z,0
2017-11-30T02:17:51.095Z,0
2017-11-30T02:18:31.682Z,0
2017-11-30T02:19:12.186Z,0
2017-11-30T02:19:52.737Z,0
2017-11-30T02:20:33.241Z,0
2017-11-30T02:21:13.741Z,0
2017-11-30T02:21:54.345Z,0
2017-11-30T02:22:34.832Z,0
2017-11-30T02:23:15.345Z,0
2017-11-30T02:23:55.897Z,0
2017-11-30T02:24:36.432Z,0
2017-11-30T02:25:16.991Z,0
2017-11-30T02:25:58.205Z,0
2017-11-30T02:26:38.099Z,0
2017-11-30T02:27:18.611Z,0
2017-11-30T02:27:59.168Z,0
2017-11-30T02:28:39.654Z,0
2017-11-30T02:29:20.258Z,0
2017-11-30T02:30:00.764Z,0
2017-11-30T02:30:41.291Z,0
2017-11-30T02:31:21.849Z,0
2017-11-30T02:32:02.462Z,0
2017-11-30T02:32:42.919Z,0
2017-11-30T02:33:23.484Z,0
2017-11-30T02:34:04.005Z,0
2017-11-30T02:34:44.564Z,0
2017-11-30T02:35:25.185Z,0
2017-11-30T02:36:05.737Z,0
2017-11-30T02:36:46.322Z,0
2017-11-30T02:37:26.831Z,0
2017-11-30T02:38:07.385Z,0
2017-11-30T02:38:47.949Z,0
2017-11-30T02:39:28.454Z,0
2017-11-30T02:40:09.014Z,0
2017-11-30T02:40:49.547Z,0
2017-11-30T02:41:30.028Z,0
2017-11-30T02:42:10.642Z,0
2017-11-30T02:42:51.168Z,0
2017-11-30T02:43:31.783Z,0
2017-11-30T02:44:12.369Z,0
2017-11-30T02:44:52.917Z,0
2017-11-30T02:45:33.388Z,0
2017-11-30T02:46:13.970Z,0
2017-11-30T02:46:54.491Z,0
2017-11-30T02:47:35.014Z,0
2017-11-30T02:48:15.615Z,0
2017-11-30T02:48:56.130Z,0
2017-11-30T02:49:36.644Z,0
2017-11-30T02:50:17.256Z,0
2017-11-30T02:50:57.795Z,0
2017-11-30T02:51:38.358Z,0
2017-11-30T02:52:18.871Z,0
2017-11-30T02:52:59.396Z,0
2017-11-30T02:53:39.933Z,0
2017-11-30T02:54:20.480Z,0
2017-11-30T02:55:01.035Z,0
2017-11-30T02:55:41.593Z,0
2017-11-30T02:56:22.117Z,0
2017-11-30T02:57:02.694Z,0
2017-11-30T02:57:43.205Z,0
2017-11-30T02:58:23.823Z,0
2017-11-30T02:59:04.562Z,0
2017-11-30T02:59:45.099Z,0
2017-11-30T03:00:25.697Z,0
2017-11-30T03:01:06.350Z,0
2017-11-30T03:01:46.870Z,0
2017-11-30T03:02:27.457Z,0
2017-11-30T03:03:07.970Z,0
2017-11-30T03:03:48.473Z,0
2017-11-30T03:04:29.318Z,0
2017-11-30T03:05:09.613Z,0
2017-11-30T03:05:50.098Z,0
2017-11-30T03:06:30.722Z,0
2017-11-30T03:07:11.204Z,0
2017-11-30T03:07:51.742Z,0
2017-11-30T03:08:32.270Z,0
2017-11-30T03:09:12.777Z,0
2017-11-30T03:09:54.126Z,0
2017-11-30T03:10:34.675Z,0
2017-11-30T03:11:15.239Z,0
2017-11-30T03:11:55.736Z,0
2017-11-30T03:12:36.276Z,0
2017-11-30T03:13:16.792Z,0
2017-11-30T03:13:57.622Z,0
2017-11-30T03:14:38.184Z,0
2017-11-30T03:15:18.734Z,0
2017-11-30T03:15:59.328Z,0
2017-11-30T03:16:39.865Z,0
2017-11-30T03:17:20.398Z,0
2017-11-30T03:18:00.917Z,0
2017-11-30T03:18:41.466Z,0
2017-11-30T03:19:21.974Z,0
2017-11-30T03:20:02.515Z,0
2017-11-30T03:20:43.084Z,0
2017-11-30T03:21:23.580Z,0
2017-11-30T03:22:05.881Z,0
2017-11-30T03:22:46.492Z,0
2017-11-30T03:23:27.015Z,0
2017-11-30T03:24:07.598Z,0
2017-11-30T03:24:48.117Z,0
2017-11-30T03:25:28.692Z,0
2017-11-30T03:26:09.311Z,0
2017-11-30T03:26:49.881Z,0
2017-11-30T03:27:30.365Z,0
2017-11-30T03:28:10.914Z,0
2017-11-30T03:28:51.470Z,0
2017-11-30T03:29:32.133Z,0
2017-11-30T03:30:12.731Z,0
2017-11-30T03:30:53.304Z,0
2017-11-30T03:31:33.847Z,0
2017-11-30T03:32:14.359Z,0
2017-11-30T03:32:54.901Z,0
2017-11-30T03:33:35.390Z,0
2017-11-30T03:34:15.925Z,0
2017-11-30T03:34:56.485Z,0
2017-11-30T03:35:37.048Z,0
2017-11-30T03:36:17.551Z,0
2017-11-30T03:36:58.100Z,0
2017-11-30T03:37:38.656Z,0
2017-11-30T03:38:19.168Z,0
2017-11-30T03:38:59.745Z,0
2017-11-30T03:39:40.314Z,0
2017-11-30T03:40:20.809Z,0
2017-11-30T03:41:01.428Z,0
2017-11-30T03:41:41.921Z,0
2017-11-30T03:42:22.463Z,0
2017-11-30T03:43:02.982Z,0
2017-11-30T03:43:43.573Z,0
2017-11-30T03:44:24.133Z,0
2017-11-30T03:45:04.761Z,0
2017-11-30T03:45:46.210Z,0
2017-11-30T03:46:25.805Z,0
2017-11-30T03:47:06.364Z,0
2017-11-30T03:47:46.900Z,0
2017-11-30T03:48:27.403Z,0
2017-11-30T03:49:07.939Z,0
2017-11-30T03:49:48.588Z,0
2017-11-30T03:50:29.061Z,0
2017-11-30T03:51:10.198Z,0
2017-11-30T03:51:51.574Z,0
2017-11-30T03:52:32.062Z,0
2017-11-30T03:53:12.645Z,0
2017-11-30T03:53:53.167Z,0
2017-11-30T03:54:33.753Z,0
2017-11-30T03:55:15.472Z,0
2017-11-30T03:55:55.765Z,0
2017-11-30T03:56:36.384Z,0
2017-11-30T03:57:16.897Z,0
2017-11-30T03:57:57.425Z,0
2017-11-30T03:58:37.944Z,0
2017-11-30T03:59:18.514Z,0
2017-11-30T03:59:59.081Z,0
2017-11-30T04:00:39.529Z,0
2017-11-30T04:01:23.038Z,0
2017-11-30T04:02:03.629Z,0
2017-11-30T04:02:44.133Z,0
2017-11-30T04:03:24.865Z,0
2017-11-30T04:04:06.372Z,0
2017-11-30T04:04:46.970Z,0
2017-11-30T04:05:27.481Z,0
2017-11-30T04:06:07.960Z,0
2017-11-30T04:06:48.545Z,0
2017-11-30T04:07:29.227Z,0
2017-11-30T04:08:09.793Z,0
2017-11-30T04:08:52.088Z,0
2017-11-30T04:09:32.626Z,0
2017-11-30T04:10:13.160Z,0
2017-11-30T04:10:53.662Z,0
2017-11-30T04:11:34.266Z,0
2017-11-30T04:12:15.954Z,0
2017-11-30T04:12:56.878Z,0
2017-11-30T04:13:37.458Z,0
2017-11-30T04:14:17.988Z,0
2017-11-30T04:14:58.453Z,0
2017-11-30T04:15:39.028Z,0
2017-11-30T04:16:19.652Z,0
2017-11-30T04:17:00.968Z,0
2017-11-30T04:17:42.128Z,0
2017-11-30T04:18:22.669Z,0
2017-11-30T04:19:03.397Z,0
2017-11-30T04:19:43.947Z,0
2017-11-30T04:20:24.476Z,0
2017-11-30T04:21:05.108Z,0
2017-11-30T04:21:45.568Z,0
2017-11-30T04:22:26.119Z,0
2017-11-30T04:23:06.651Z,0
2017-11-30T04:23:48.232Z,0
2017-11-30T04:24:28.187Z,0
2017-11-30T04:25:08.759Z,0
2017-11-30T04:25:49.246Z,0
2017-11-30T04:26:30.735Z,0
2017-11-30T04:27:11.403Z,0
2017-11-30T04:27:51.893Z,0
2017-11-30T04:28:32.413Z,0
2017-11-30T04:29:13.009Z,0
2017-11-30T04:29:53.505Z,0
2017-11-30T04:30:34.068Z,0
2017-11-30T04:31:14.600Z,0
2017-11-30T04:31:55.154Z,0
2017-11-30T04:32:36.448Z,0
2017-11-30T04:33:17.435Z,0
2017-11-30T04:33:57.959Z,0
2017-11-30T04:34:38.528Z,0
2017-11-30T04:35:19.101Z,0
2017-11-30T04:35:59.614Z,0
2017-11-30T04:36:40.181Z,0
2017-11-30T04:37:22.140Z,0
2017-11-30T04:38:01.735Z,0
2017-11-30T04:38:42.558Z,0
2017-11-30T04:39:23.092Z,0
2017-11-30T04:40:03.651Z,0
2017-11-30T04:40:44.175Z,0
2017-11-30T04:41:24.770Z,0
2017-11-30T04:42:05.467Z,0
2017-11-30T04:42:46.927Z,0
2017-11-30T04:43:27.774Z,0
2017-11-30T04:44:08.285Z,0
2017-11-30T04:44:48.797Z,0
2017-11-30T04:45:29.287Z,0
2017-11-30T04:46:09.828Z,0
2017-11-30T04:46:50.385Z,0
2017-11-30T04:47:31.190Z,0
2017-11-30T04:48:11.692Z,0
2017-11-30T04:48:52.244Z,0
2017-11-30T04:49:32.787Z,0
2017-11-30T04:50:13.355Z,0
2017-11-30T04:50:55.327Z,0
2017-11-30T04:52:53.655Z,0
2017-11-30T04:53:34.203Z,0
2017-11-30T04:54:14.729Z,0
2017-11-30T04:54:55.258Z,0
2017-11-30T04:55:35.761Z,0
2017-11-30T04:56:16.327Z,0
2017-11-30T04:56:56.897Z,0
2017-11-30T04:57:37.412Z,0
2017-11-30T04:58:17.936Z,0
2017-11-30T04:58:58.465Z,0
2017-11-30T04:59:39.051Z,0
2017-11-30T05:00:20.056Z,0
2017-11-30T05:01:00.849Z,0
2017-11-30T05:01:41.399Z,0
2017-11-30T05:02:22.102Z,0
2017-11-30T05:03:02.599Z,0
2017-11-30T05:03:43.844Z,0
2017-11-30T05:04:24.389Z,0
2017-11-30T05:05:04.931Z,0
2017-11-30T05:05:45.562Z,0
2017-11-30T05:06:27.522Z,0
2017-11-30T05:07:08.065Z,0
2017-11-30T05:07:48.615Z,0
2017-11-30T05:08:30.363Z,0
2017-11-30T05:09:10.907Z,0
2017-11-30T05:09:51.841Z,0
2017-11-30T05:10:32.467Z,0
2017-11-30T05:11:13.050Z,0
2017-11-30T05:11:53.522Z,0
2017-11-30T05:12:34.570Z,0
2017-11-30T05:13:15.069Z,0
2017-11-30T05:13:55.618Z,0
2017-11-30T05:14:36.607Z,0
2017-11-30T05:15:17.404Z,0
2017-11-30T05:16:00.358Z,0
2017-11-30T05:16:41.698Z,0
2017-11-30T05:17:22.357Z,0
2017-11-30T05:18:03.517Z,0
2017-11-30T05:18:44.002Z,0
2017-11-30T05:19:24.507Z,0
2017-11-30T05:20:05.086Z,0
2017-11-30T05:20:45.653Z,0
2017-11-30T05:21:26.400Z,0
2017-11-30T05:22:06.937Z,0
2017-11-30T05:22:47.468Z,0
2017-11-30T05:23:28.173Z,0
2017-11-30T05:24:08.649Z,0
2017-11-30T05:24:49.243Z,0
2017-11-30T05:25:29.732Z,0
2017-11-30T05:26:11.124Z,0
2017-11-30T05:26:52.358Z,0
2017-11-30T05:27:32.931Z,0
2017-11-30T05:28:13.526Z,0
2017-11-30T05:28:54.059Z,0
2017-11-30T05:29:34.573Z,0
2017-11-30T05:30:15.790Z,0
2017-11-30T05:30:56.306Z,0
2017-11-30T05:31:37.287Z,0
2017-11-30T05:32:18.331Z,0
2017-11-30T05:32:58.898Z,0
2017-11-30T05:33:39.395Z,0
2017-11-30T05:34:19.909Z,0
2017-11-30T05:35:00.467Z,0
2017-11-30T05:35:41.008Z,0
2017-11-30T05:36:21.550Z,0
2017-11-30T05:37:02.466Z,0
2017-11-30T05:37:43.007Z,0
2017-11-30T05:38:23.714Z,0
2017-11-30T05:39:04.534Z,0
2017-11-30T05:39:45.051Z,0
2017-11-30T05:40:25.624Z,0
2017-11-30T05:41:06.102Z,0
2017-11-30T05:41:46.658Z,0
2017-11-30T05:42:27.293Z,0
2017-11-30T05:43:07.812Z,0
2017-11-30T05:43:48.347Z,0
2017-11-30T05:44:28.937Z,0
2017-11-30T05:45:09.495Z,0
2017-11-30T05:45:50.077Z,0
2017-11-30T05:46:30.609Z,0
2017-11-30T05:47:11.139Z,0
2017-11-30T05:47:51.689Z,0
2017-11-30T05:48:32.175Z,0
2017-11-30T05:49:13.004Z,0
2017-11-30T05:49:53.535Z,0
2017-11-30T05:50:34.187Z,0
2017-11-30T05:51:15.702Z,0
2017-11-30T05:51:56.214Z,0
2017-11-30T05:52:36.790Z,0
2017-11-30T05:53:17.981Z,0
2017-11-30T05:53:58.825Z,0
2017-11-30T05:54:39.355Z,0
2017-11-30T05:55:20.033Z,0
2017-11-30T05:56:00.557Z,0
2017-11-30T05:56:41.186Z,0
2017-11-30T05:57:21.659Z,0
2017-11-30T05:58:02.153Z,0
2017-11-30T05:58:42.791Z,0
2017-11-30T05:59:23.356Z,0
2017-11-30T06:00:03.961Z,0
2017-11-30T06:00:44.619Z,0
2017-11-30T06:01:25.254Z,0
2017-11-30T06:02:05.764Z,0
2017-11-30T06:02:46.316Z,0
2017-11-30T06:03:26.870Z,0
2017-11-30T06:04:07.492Z,0
2017-11-30T06:04:48.014Z,0
2017-11-30T06:05:28.530Z,0
2017-11-30T06:06:09.051Z,0
2017-11-30T06:06:49.640Z,0
2017-11-30T06:07:30.322Z,0
2017-11-30T06:08:10.879Z,0
2017-11-30T06:08:51.418Z,0
2017-11-30T06:09:31.998Z,0
2017-11-30T06:10:12.522Z,0
2017-11-30T06:10:53.066Z,0
2017-11-30T06:11:33.587Z,0
2017-11-30T06:12:14.170Z,0
2017-11-30T06:12:54.725Z,0
2017-11-30T06:13:35.642Z,0
2017-11-30T06:14:16.173Z,0
2017-11-30T06:14:56.685Z,0
2017-11-30T06:15:37.263Z,0
2017-11-30T06:16:17.851Z,0
2017-11-30T06:16:58.351Z,0
2017-11-30T06:17:38.863Z,0
2017-11-30T06:18:19.532Z,0
2017-11-30T06:19:00.089Z,0
2017-11-30T06:19:40.595Z,0
2017-11-30T06:20:21.259Z,0
2017-11-30T06:21:01.657Z,0
2017-11-30T06:21:42.166Z,0
2017-11-30T06:22:22.748Z,0
2017-11-30T06:23:03.302Z,0
2017-11-30T06:23:43.834Z,0
2017-11-30T06:24:24.358Z,0
2017-11-30T06:25:04.938Z,0
2017-11-30T06:25:45.453Z,0
2017-11-30T06:26:26.005Z,0
2017-11-30T06:27:06.541Z,0
2017-11-30T06:27:47.074Z,0
2017-11-30T06:28:27.554Z,0
2017-11-30T06:29:08.136Z,0
2017-11-30T06:29:48.689Z,0
2017-11-30T06:30:29.248Z,0
2017-11-30T06:31:09.760Z,0
2017-11-30T06:31:50.301Z,0
2017-11-30T06:32:30.890Z,0
2017-11-30T06:33:11.418Z,0
2017-11-30T06:33:52.034Z,0
2017-11-30T06:34:33.235Z,4
2017-11-30T06:35:13.972Z,4
2017-11-30T06:35:54.477Z,4
2017-11-30T06:36:35.019Z,0
2017-11-30T06:37:15.583Z,0
2017-11-30T06:37:56.105Z,0
2017-11-30T06:38:36.615Z,4
2017-11-30T06:39:18.018Z,4
2017-11-30T06:39:58.010Z,4
2017-11-30T06:40:39.189Z,4
2017-11-30T06:41:19.785Z,4
2017-11-30T06:42:00.297Z,4
2017-11-30T06:42:40.860Z,8
2017-11-30T06:43:21.401Z,4
2017-11-30T06:44:01.911Z,8
2017-11-30T06:44:42.585Z,4
2017-11-30T06:45:23.108Z,8
2017-11-30T06:46:03.668Z,8
2017-11-30T06:46:44.244Z,8
2017-11-30T06:47:25.320Z,8
2017-11-30T06:48:06.285Z,12
2017-11-30T06:48:47.320Z,12
2017-11-30T06:49:27.859Z,12
2017-11-30T06:50:09.037Z,12
2017-11-30T06:50:49.295Z,16
2017-11-30T06:51:31.039Z,16
2017-11-30T06:52:11.449Z,20
2017-11-30T06:52:52.129Z,20
2017-11-30T06:53:32.743Z,24
2017-11-30T06:54:13.276Z,24
2017-11-30T06:54:55.076Z,24
2017-11-30T06:55:35.887Z,24
2017-11-30T06:56:16.486Z,24
2017-11-30T06:56:57.001Z,24
2017-11-30T06:57:37.672Z,24
2017-11-30T06:58:19.441Z,32
2017-11-30T06:58:58.729Z,32
2017-11-30T06:59:39.327Z,28
2017-11-30T07:00:20.165Z,28
2017-11-30T07:01:00.757Z,28
2017-11-30T07:01:41.177Z,32
2017-11-30T07:02:21.814Z,32
2017-11-30T07:03:02.367Z,32
2017-11-30T07:03:42.916Z,32
2017-11-30T07:04:23.434Z,36
2017-11-30T07:05:03.952Z,40
2017-11-30T07:05:44.604Z,40
2017-11-30T07:06:32.627Z,40
2017-11-30T07:07:13.585Z,40
2017-11-30T07:07:54.117Z,40
2017-11-30T07:08:34.733Z,44
2017-11-30T07:09:15.339Z,44
2017-11-30T07:09:56.275Z,48
2017-11-30T07:10:37.099Z,52
2017-11-30T07:11:17.879Z,56
2017-11-30T07:11:58.415Z,56
2017-11-30T07:12:39.232Z,56
2017-11-30T07:13:19.877Z,64
2017-11-30T07:14:00.286Z,72
2017-11-30T07:14:41.395Z,76
2017-11-30T07:15:22.139Z,84
2017-11-30T07:16:02.963Z,96
2017-11-30T07:16:43.417Z,96
2017-11-30T07:17:23.901Z,100
2017-11-30T07:18:04.453Z,104
2017-11-30T07:18:45.027Z,124
2017-11-30T07:19:26.670Z,128
2017-11-30T07:20:07.243Z,128
2017-11-30T07:20:47.968Z,124
2017-11-30T07:21:28.431Z,128
2017-11-30T07:22:08.988Z,136
2017-11-30T07:22:49.464Z,132
2017-11-30T07:23:30.087Z,140
2017-11-30T07:24:11.871Z,136
2017-11-30T07:24:52.474Z,148
2017-11-30T07:25:33.473Z,152
2017-11-30T07:26:14.197Z,160
2017-11-30T07:26:54.712Z,184
2017-11-30T07:27:36.048Z,192
2017-11-30T07:28:16.089Z,184
2017-11-30T07:28:57.521Z,184
2017-11-30T07:29:38.204Z,200
2017-11-30T07:30:19.415Z,204
2017-11-30T07:30:59.911Z,216
2017-11-30T07:31:40.588Z,220
2017-11-30T07:32:21.119Z,208
2017-11-30T07:33:01.656Z,204
2017-11-30T07:33:42.233Z,216
2017-11-30T07:34:22.762Z,232
2017-11-30T07:35:03.297Z,216
2017-11-30T07:35:43.841Z,212
2017-11-30T07:36:24.355Z,220
2017-11-30T07:37:05.197Z,236
2017-11-30T07:37:47.193Z,236
2017-11-30T07:38:27.722Z,216
2017-11-30T07:39:08.263Z,204
2017-11-30T07:39:48.813Z,216
2017-11-30T07:40:29.380Z,224
2017-11-30T07:41:10.205Z,244
2017-11-30T07:41:50.529Z,252
2017-11-30T07:42:31.411Z,260
2017-11-30T07:43:11.986Z,240
2017-11-30T07:43:52.469Z,248
2017-11-30T07:44:33.046Z,248
2017-11-30T07:45:13.612Z,288
2017-11-30T07:45:54.141Z,288
2017-11-30T07:46:34.704Z,296
2017-11-30T07:47:15.235Z,304
2017-11-30T07:47:55.786Z,304
2017-11-30T07:48:36.493Z,332
2017-11-30T07:49:23.399Z,344
2017-11-30T07:50:01.193Z,368
2017-11-30T07:50:41.981Z,384
2017-11-30T07:51:22.529Z,412
2017-11-30T07:52:03.081Z,412
2017-11-30T07:52:43.622Z,428
2017-11-30T07:53:24.297Z,400
2017-11-30T07:54:04.727Z,408
2017-11-30T07:54:45.329Z,372
2017-11-30T07:55:25.863Z,360
2017-11-30T07:56:06.892Z,372
2017-11-30T07:56:47.436Z,332
2017-11-30T07:57:28.046Z,360
2017-11-30T07:58:08.605Z,344
2017-11-30T07:58:49.122Z,336
2017-11-30T07:59:29.703Z,316
2017-11-30T08:00:10.200Z,312
2017-11-30T08:00:50.778Z,320
2017-11-30T08:01:31.646Z,332
2017-11-30T08:02:12.159Z,332
2017-11-30T08:02:52.830Z,296
2017-11-30T08:03:33.435Z,284
2017-11-30T08:04:14.310Z,296
2017-11-30T08:04:54.864Z,332
2017-11-30T08:05:35.476Z,348
2017-11-30T08:06:16.025Z,368
2017-11-30T08:06:56.727Z,348
2017-11-30T08:07:37.303Z,344
2017-11-30T08:08:17.841Z,376
2017-11-30T08:08:58.357Z,404
2017-11-30T08:09:38.954Z,448
2017-11-30T08:10:19.527Z,464
2017-11-30T08:11:00.050Z,464
2017-11-30T08:11:40.533Z,492
2017-11-30T08:12:21.130Z,460
2017-11-30T08:13:01.623Z,496
2017-11-30T08:13:42.172Z,448
2017-11-30T08:14:22.732Z,440
2017-11-30T08:15:03.248Z,424
2017-11-30T08:15:43.772Z,396
2017-11-30T08:16:24.324Z,432
2017-11-30T08:17:04.854Z,436
2017-11-30T08:17:45.391Z,388
2017-11-30T08:18:25.881Z,356
2017-11-30T08:19:06.518Z,352
2017-11-30T08:19:47.049Z,356
2017-11-30T08:20:27.599Z,340
2017-11-30T08:21:08.137Z,344
2017-11-30T08:21:48.647Z,376
2017-11-30T08:22:29.191Z,412
2017-11-30T08:23:09.759Z,440
2017-11-30T08:23:50.307Z,428
2017-11-30T08:24:30.850Z,424
2017-11-30T08:25:11.493Z,448
2017-11-30T08:25:51.921Z,444
2017-11-30T08:26:32.491Z,440
2017-11-30T08:27:13.163Z,408
2017-11-30T08:27:54.233Z,412
2017-11-30T08:28:34.779Z,420
2017-11-30T08:29:15.324Z,468
2017-11-30T08:29:55.834Z,520
2017-11-30T08:30:36.409Z,492
2017-11-30T08:31:16.914Z,460
2017-11-30T08:31:57.458Z,472
2017-11-30T08:32:37.971Z,500
2017-11-30T08:33:18.540Z,540
2017-11-30T08:33:59.281Z,576
2017-11-30T08:34:39.806Z,604
2017-11-30T08:35:20.353Z,612
2017-11-30T08:36:00.858Z,564
2017-11-30T08:36:41.470Z,536
2017-11-30T08:37:21.989Z,536
2017-11-30T08:38:02.800Z,580
2017-11-30T08:38:43.354Z,624
2017-11-30T08:39:23.940Z,632
2017-11-30T08:40:04.458Z,612
2017-11-30T08:40:45.047Z,668
2017-11-30T08:41:25.562Z,660
2017-11-30T08:42:06.137Z,704
2017-11-30T08:42:46.666Z,680
2017-11-30T08:43:27.377Z,728
2017-11-30T08:44:07.852Z,728
2017-11-30T08:44:48.527Z,656
2017-11-30T08:45:28.970Z,624
2017-11-30T08:46:09.529Z,576
2017-11-30T08:46:50.146Z,544
2017-11-30T08:47:30.624Z,496
2017-11-30T08:48:11.157Z,488
2017-11-30T08:48:51.861Z,464
2017-11-30T08:49:32.658Z,468
2017-11-30T08:50:12.926Z,476
2017-11-30T08:50:53.694Z,480
2017-11-30T08:51:34.250Z,524
2017-11-30T08:52:14.815Z,552
2017-11-30T08:52:55.385Z,548
2017-11-30T08:53:35.857Z,544
2017-11-30T08:54:16.434Z,596
2017-11-30T08:54:57.053Z,596
2017-11-30T08:55:37.614Z,556
2017-11-30T08:56:18.096Z,520
2017-11-30T08:56:58.716Z,540
2017-11-30T08:57:39.252Z,536
2017-11-30T08:58:19.891Z,500
2017-11-30T08:59:00.489Z,580
2017-11-30T08:59:41.088Z,548
2017-11-30T09:00:22.189Z,524
2017-11-30T09:01:02.765Z,576
2017-11-30T09:01:43.330Z,620
2017-11-30T09:02:23.814Z,680
2017-11-30T09:03:04.389Z,648
2017-11-30T09:03:45.181Z,612
2017-11-30T09:04:25.638Z,624
2017-11-30T09:05:06.384Z,652
2017-11-30T09:05:46.901Z,772
2017-11-30T09:06:28.352Z,908
2017-11-30T09:07:08.929Z,1016
2017-11-30T09:07:49.491Z,1116
2017-11-30T09:08:30.190Z,1212
2017-11-30T09:09:10.893Z,1028
2017-11-30T09:09:52.921Z,1088
2017-11-30T09:10:33.487Z,1180
2017-11-30T09:11:14.098Z,1040
2017-11-30T09:11:54.749Z,1024
2017-11-30T09:12:36.568Z,1044
2017-11-30T09:13:16.851Z,1140
2017-11-30T09:13:57.273Z,1216
2017-11-30T09:14:37.816Z,1200
2017-11-30T09:15:18.380Z,1188
2017-11-30T09:15:58.881Z,1192
2017-11-30T09:16:39.470Z,1196
2017-11-30T09:17:20.096Z,1212
2017-11-30T09:18:00.626Z,1140
2017-11-30T09:18:41.275Z,1084
2017-11-30T09:19:21.696Z,1024
2017-11-30T09:20:02.252Z,1120
2017-11-30T09:20:42.892Z,1156
2017-11-30T09:21:23.635Z,1124
2017-11-30T09:22:04.182Z,1148
2017-11-30T09:22:44.685Z,1164
2017-11-30T09:23:25.214Z,1168
2017-11-30T09:24:05.725Z,1108
2017-11-30T09:24:46.249Z,1080
2017-11-30T09:25:26.810Z,1076
2017-11-30T09:26:07.383Z,1076
2017-11-30T09:26:47.878Z,1144
2017-11-30T09:27:28.452Z,1204
2017-11-30T09:28:09.257Z,1196
2017-11-30T09:28:50.350Z,1260
2017-11-30T09:29:30.860Z,1320
2017-11-30T09:30:11.426Z,1452
2017-11-30T09:30:52.053Z,1556
2017-11-30T09:31:32.603Z,1732
2017-11-30T09:32:13.277Z,1888
2017-11-30T09:32:54.159Z,1956
2017-11-30T09:33:34.835Z,1748
2017-11-30T09:34:15.393Z,1808
2017-11-30T09:34:55.908Z,2056
2017-11-30T09:35:36.419Z,2168
2017-11-30T09:36:17.018Z,2068
2017-11-30T09:36:57.610Z,1964
2017-11-30T09:37:38.339Z,1852
2017-11-30T09:38:19.069Z,1688
2017-11-30T09:38:59.526Z,1624
2017-11-30T09:39:40.039Z,1752
2017-11-30T09:40:20.943Z,1636
2017-11-30T09:41:02.100Z,1392
2017-11-30T09:41:43.876Z,1104
2017-11-30T09:42:24.451Z,1028
2017-11-30T09:43:04.982Z,876
2017-11-30T09:43:45.570Z,884
2017-11-30T09:44:26.109Z,988
2017-11-30T09:45:06.745Z,948
2017-11-30T09:45:47.247Z,1000
2017-11-30T09:46:27.843Z,1204
2017-11-30T09:47:08.344Z,1372
2017-11-30T09:47:48.875Z,1480
2017-11-30T09:48:29.360Z,1560